Time;durP1;ratioP1;P1;durP2;ratioP2;P2;SDS_P1;SDS_P2;PMS_P1;PMS_P2;Temp;Humidity;BMP_temperature;BMP_pressure;BME280_temperature;BME280_humidity;BME280_pressure;Samples;Min_cycle;Max_cycle;Signal;HPM_P1;HPM_P2
2021/05/06 00:32:23;;;;;;;1.20;1.08;;;;;;;;;;5002758;28;20049;-52
2021/05/06 00:34:50;;;;;;;1.45;1.33;;;;;;;;;;5008019;28;20042;-50
2021/05/06 00:37:18;;;;;;;1.52;1.02;;;;;;;;;;5004338;28;20050;-52
2021/05/06 00:39:57;;;;;;;1.25;1.15;;;;;;;;;;5000817;28;20046;-53
2021/05/06 00:42:38;;;;;;;1.48;1.38;;;;;;;;;;5007135;28;20046;-49
2021/05/06 01:02:15;;;;;;;3.53;1.50;;;;;;;;;;5006764;28;20057;-49
2021/05/06 01:04:28;;;;;;;1.73;1.63;;;;;;;;;;4989375;28;20065;-50
2021/05/06 01:09:31;;;;;;;2.03;1.48;;;;;;;;;;4985703;28;20423;-50
2021/05/06 01:12:03;;;;;;;2.35;1.50;;;;;;;;;;4984570;28;20049;-51
2021/05/06 01:14:32;;;;;;;1.60;1.50;;;;;;;;;;4986337;28;20078;-52
2021/05/06 01:16:58;;;;;;;3.72;1.77;;;;;;;;;;4984981;28;20072;-50
2021/05/06 01:19:24;;;;;;;1.75;1.50;;;;;;;;;;4989715;28;20074;-53
2021/05/06 01:21:52;;;;;;;2.20;1.73;;;;;;;;;;4994788;28;20034;-49
2021/05/06 01:24:19;;;;;;;4.32;2.08;;;;;;;;;;4989244;28;20376;-51
2021/05/06 01:27:05;;;;;;;2.10;1.90;;;;;;;;;;4989183;28;20093;-50
2021/05/06 01:29:38;;;;;;;2.10;1.80;;;;;;;;;;4993138;28;20191;-53
2021/05/06 01:34:31;;;;;;;2.00;1.73;;;;;;;;;;4991834;28;20054;-49
2021/05/06 01:37:10;;;;;;;2.08;1.73;;;;;;;;;;4990333;28;20604;-52
2021/05/06 01:42:30;;;;;;;2.20;2.00;;;;;;;;;;4987061;28;20129;-51
2021/05/06 02:00:33;;;;;;;2.95;2.20;;;;;;;;;;4983661;28;20094;-53
2021/05/06 02:03:15;;;;;;;2.63;2.00;;;;;;;;;;4987208;28;20069;-49
2021/05/06 02:05:41;;;;;;;3.92;2.05;;;;;;;;;;4984282;28;20282;-49
2021/05/06 02:08:08;;;;;;;7.38;2.60;;;;;;;;;;4992222;28;20054;-48
2021/05/06 02:10:41;;;;;;;4.68;2.60;;;;;;;;;;5005484;28;20457;-48
2021/05/06 02:13:09;;;;;;;4.78;2.20;;;;;;;;;;5006955;28;20058;-48
2021/05/06 02:15:39;;;;;;;4.53;2.40;;;;;;;;;;5008091;28;20415;-53
2021/05/06 02:18:06;;;;;;;4.32;2.67;;;;;;;;;;4993393;28;20046;-52
2021/05/06 02:20:34;;;;;;;4.93;2.72;;;;;;;;;;4993181;28;20556;-51
2021/05/06 02:23:04;;;;;;;3.92;2.60;;;;;;;;;;4989101;28;20046;-48
2021/05/06 02:25:30;;;;;;;4.22;2.78;;;;;;;;;;5000091;28;20042;-48
2021/05/06 02:27:58;;;;;;;2.47;2.20;;;;;;;;;;4985161;28;20088;-50
2021/05/06 02:30:24;;;;;;;3.80;2.55;;;;;;;;;;5006634;28;20061;-51
2021/05/06 02:32:50;;;;;;;4.47;2.50;;;;;;;;;;5006862;28;20066;-49
2021/05/06 02:35:18;;;;;;;;;;;;;;;;;;5005243;28;20120;-49
2021/05/06 02:37:44;;;;;;;3.20;2.50;;;;;;;;;;5006239;28;20049;-53
2021/05/06 02:40:11;;;;;;;4.05;2.35;;;;;;;;;;5007255;28;20042;-48
2021/05/06 02:42:38;;;;;;;4.87;2.50;;;;;;;;;;4990455;28;20038;-49
2021/05/06 02:45:05;;;;;;;3.85;2.60;;;;;;;;;;5006755;28;20351;-50
2021/05/06 02:47:31;;;;;;;3.20;2.30;;;;;;;;;;5004281;28;20394;-49
2021/05/06 02:49:59;;;;;;;5.50;2.90;;;;;;;;;;5003515;28;20049;-50
2021/05/06 02:52:32;;;;;;;3.53;2.50;;;;;;;;;;5009609;28;20046;-49
2021/05/06 02:55:06;;;;;;;3.95;2.60;;;;;;;;;;5008160;28;20054;-47
2021/05/06 02:57:43;;;;;;;4.90;2.60;;;;;;;;;;5002996;28;20529;-51
2021/05/06 03:02:56;;;;;;;3.92;2.53;;;;;;;;;;5010126;28;20505;-53
2021/05/06 03:05:26;;;;;;;3.40;2.40;;;;;;;;;;4990220;28;20041;-49
2021/05/06 03:08:07;;;;;;;4.05;2.92;;;;;;;;;;5006207;28;20500;-48
2021/05/06 03:10:47;;;;;;;6.78;3.10;;;;;;;;;;5003649;28;20035;-52
2021/05/06 03:23:58;;;;;;;4.25;2.65;;;;;;;;;;4999975;28;20042;-47
2021/05/06 03:26:24;;;;;;;5.80;2.97;;;;;;;;;;5003527;28;20047;-48
2021/05/06 03:29:01;;;;;;;4.30;3.10;;;;;;;;;;5010046;28;20116;-47
2021/05/06 03:43:11;;;;;;;4.65;3.40;;;;;;;;;;4949434;28;20045;-48
2021/05/06 03:49:01;;;;;;;11.07;4.57;;;;;;;;;;5006448;28;20045;-48
2021/05/06 04:38:17;;;;;;;12.45;5.20;;;;;;;;;;4892686;29;20059;-47
2021/05/06 04:54:08;;;;;;;12.93;5.93;;;;;;;;;;5005053;28;20038;-49
2021/05/06 05:04:37;;;;;;;12.73;6.38;;;;;;;;;;5001750;28;20116;-47
2021/05/06 05:07:11;;;;;;;10.13;5.60;;;;;;;;;;5004483;28;20046;-52
2021/05/06 05:12:29;;;;;;;10.50;5.78;;;;;;;;;;4968884;28;20376;-49
2021/05/06 05:25:32;;;;;;;11.35;4.82;;;;;;;;;;4962083;28;19944;-53
2021/05/06 05:27:59;;;;;;;11.75;5.00;;;;;;;;;;4966476;28;20047;-48
2021/05/06 05:30:27;;;;;;;10.68;5.13;;;;;;;;;;4959435;28;20047;-49
2021/05/06 05:33:08;;;;;;;9.55;4.90;;;;;;;;;;4964034;28;20042;-49
2021/05/06 05:35:39;;;;;;;9.90;4.80;;;;;;;;;;4962652;28;20102;-52
2021/05/06 05:43:57;;;;;;;9.20;4.68;;;;;;;;;;4968138;28;20090;-50
2021/05/06 05:56:50;;;;;;;8.75;4.32;;;;;;;;;;4967868;28;20042;-50
2021/05/06 05:59:16;;;;;;;9.80;5.07;;;;;;;;;;4958605;28;20043;-53
2021/05/06 06:01:47;;;;;;;13.20;5.05;;;;;;;;;;4965758;28;20524;-49
2021/05/06 06:04:13;;;;;;;8.45;4.82;;;;;;;;;;4965509;28;20077;-52
2021/05/06 06:06:39;;;;;;;9.57;4.32;;;;;;;;;;4962756;28;20078;-52
2021/05/06 06:09:05;;;;;;;7.93;3.97;;;;;;;;;;4997469;28;20046;-54
2021/05/06 06:11:32;;;;;;;7.80;4.05;;;;;;;;;;5006604;28;20038;-52
2021/05/06 06:14:04;;;;;;;6.22;3.55;;;;;;;;;;5002259;28;20124;-49
2021/05/06 06:16:31;;;;;;;7.28;4.35;;;;;;;;;;5004026;28;20571;-51
2021/05/06 06:19:00;;;;;;;7.75;4.30;;;;;;;;;;4991339;28;20084;-50
2021/05/06 06:21:44;;;;;;;7.80;4.45;;;;;;;;;;5008100;28;20050;-49
2021/05/06 06:24:11;;;;;;;5.82;4.03;;;;;;;;;;5002115;28;20069;-50
2021/05/06 06:26:37;;;;;;;8.13;4.25;;;;;;;;;;5005115;28;20056;-50
2021/05/06 06:29:07;;;;;;;6.60;4.15;;;;;;;;;;5004594;28;20050;-49
2021/05/06 06:34:01;;;;;;;7.65;3.95;;;;;;;;;;5005704;28;20148;-49
2021/05/06 06:36:27;;;;;;;9.77;3.85;;;;;;;;;;5003145;28;20132;-51
2021/05/06 06:38:53;;;;;;;6.32;4.18;;;;;;;;;;5008388;28;20038;-52
2021/05/06 06:41:19;;;;;;;8.48;4.00;;;;;;;;;;5007068;28;20751;-49
2021/05/06 06:43:49;;;;;;;7.32;3.70;;;;;;;;;;5003902;28;20133;-51
2021/05/06 06:46:17;;;;;;;9.60;4.25;;;;;;;;;;5000025;28;20569;-51
2021/05/06 06:48:44;;;;;;;9.00;4.50;;;;;;;;;;5002049;28;20073;-53
2021/05/06 06:51:10;;;;;;;5.88;4.13;;;;;;;;;;5006844;28;20122;-52
2021/05/06 06:53:37;;;;;;;8.70;4.60;;;;;;;;;;5011239;28;20069;-50
2021/05/06 06:56:04;;;;;;;7.38;3.22;;;;;;;;;;5004171;28;20042;-49
2021/05/06 06:58:30;;;;;;;5.13;3.92;;;;;;;;;;5007659;28;20093;-53
2021/05/06 07:00:56;;;;;;;10.32;4.70;;;;;;;;;;5002915;28;20050;-49
2021/05/06 07:03:23;;;;;;;12.55;4.70;;;;;;;;;;5007642;28;20073;-50
2021/05/06 07:05:49;;;;;;;8.27;4.38;;;;;;;;;;5004000;28;20045;-49
2021/05/06 07:08:23;;;;;;;8.38;3.80;;;;;;;;;;5003163;28;20045;-54
2021/05/06 07:10:51;;;;;;;6.72;4.13;;;;;;;;;;5006928;28;20050;-50
2021/05/06 07:13:18;;;;;;;8.85;4.32;;;;;;;;;;5005522;28;20069;-49
2021/05/06 07:16:01;;;;;;;8.45;4.15;;;;;;;;;;5000610;28;20457;-50
2021/05/06 07:18:28;;;;;;;10.10;4.20;;;;;;;;;;5006987;28;20042;-54
2021/05/06 07:20:55;;;;;;;8.63;3.92;;;;;;;;;;5005846;28;20054;-52
2021/05/06 07:23:22;;;;;;;7.63;4.90;;;;;;;;;;5005702;28;20124;-52
2021/05/06 07:25:54;;;;;;;8.25;3.85;;;;;;;;;;5001002;28;20049;-52
2021/05/06 07:28:43;;;;;;;10.02;3.88;;;;;;;;;;5010003;28;20041;-53
2021/05/06 07:31:15;;;;;;;9.18;4.28;;;;;;;;;;4989127;28;20152;-50
2021/05/06 07:33:46;;;;;;;8.10;4.43;;;;;;;;;;5008050;28;20100;-51
2021/05/06 07:36:17;;;;;;;10.02;4.55;;;;;;;;;;5008127;28;20116;-53
2021/05/06 07:38:46;;;;;;;12.55;5.10;;;;;;;;;;4988800;28;20049;-54
2021/05/06 07:41:17;;;;;;;8.13;4.25;;;;;;;;;;5001399;28;20077;-50
2021/05/06 07:43:48;;;;;;;11.45;4.50;;;;;;;;;;5001748;28;20136;-51
2021/05/06 07:46:18;;;;;;;9.13;4.35;;;;;;;;;;5005592;28;20132;-50
2021/05/06 07:48:50;;;;;;;7.22;4.35;;;;;;;;;;4988263;28;20046;-51
2021/05/06 07:51:21;;;;;;;6.40;3.58;;;;;;;;;;5003645;28;20512;-51
2021/05/06 07:53:52;;;;;;;8.90;3.83;;;;;;;;;;4992670;28;20112;-51
2021/05/06 07:56:23;;;;;;;8.48;4.07;;;;;;;;;;5003667;28;20042;-54
2021/05/06 07:58:49;;;;;;;8.27;3.55;;;;;;;;;;5005721;28;20393;-49
2021/05/06 08:01:15;;;;;;;5.97;3.42;;;;;;;;;;5005147;28;20050;-52
2021/05/06 08:03:41;;;;;;;9.75;4.00;;;;;;;;;;5005682;28;20129;-51
2021/05/06 08:06:08;;;;;;;6.70;3.70;;;;;;;;;;5006269;28;20050;-53
2021/05/06 08:08:34;;;;;;;8.27;4.38;;;;;;;;;;5001416;28;20461;-52
2021/05/06 08:11:02;;;;;;;9.18;4.07;;;;;;;;;;5004634;28;20056;-49
2021/05/06 08:13:29;;;;;;;6.80;3.88;;;;;;;;;;5010049;28;20133;-49
2021/05/06 08:15:56;;;;;;;8.80;3.90;;;;;;;;;;5004315;28;20459;-53
2021/05/06 08:18:24;;;;;;;7.53;4.07;;;;;;;;;;5000464;28;20046;-48
2021/05/06 08:20:51;;;;;;;7.38;4.22;;;;;;;;;;4998528;28;20126;-54
2021/05/06 08:23:20;;;;;;;6.38;3.80;;;;;;;;;;5002313;28;20446;-53
2021/05/06 08:25:46;;;;;;;9.23;4.22;;;;;;;;;;5003385;28;20494;-49
2021/05/06 08:28:12;;;;;;;10.80;3.45;;;;;;;;;;5003970;28;20134;-51
2021/05/06 08:30:39;;;;;;;11.20;4.30;;;;;;;;;;5002597;28;20521;-50
2021/05/06 08:33:05;;;;;;;6.45;3.78;;;;;;;;;;5004688;28;20129;-52
2021/05/06 08:35:32;;;;;;;6.28;3.28;;;;;;;;;;5006540;28;20030;-50
2021/05/06 08:38:00;;;;;;;8.45;3.85;;;;;;;;;;5006508;28;20116;-48
2021/05/06 08:40:27;;;;;;;5.60;4.03;;;;;;;;;;5004726;28;20062;-48
2021/05/06 08:42:55;;;;;;;6.40;3.87;;;;;;;;;;5002058;28;20041;-51
2021/05/06 08:45:26;;;;;;;7.03;3.85;;;;;;;;;;5004706;28;20081;-52
2021/05/06 08:47:52;;;;;;;8.35;3.70;;;;;;;;;;5005793;28;20073;-50
2021/05/06 08:50:20;;;;;;;5.88;3.78;;;;;;;;;;5004875;28;20046;-52
2021/05/06 08:52:47;;;;;;;8.38;4.85;;;;;;;;;;5006723;28;20489;-52
2021/05/06 08:55:13;;;;;;;9.70;4.85;;;;;;;;;;5005091;28;20046;-54
2021/05/06 08:57:41;;;;;;;6.97;4.35;;;;;;;;;;4998030;28;20042;-49
2021/05/06 09:00:07;;;;;;;11.05;4.10;;;;;;;;;;5008687;28;20469;-53
2021/05/06 09:02:33;;;;;;;9.07;3.78;;;;;;;;;;4998235;28;20039;-51
2021/05/06 09:05:04;;;;;;;5.88;3.65;;;;;;;;;;5005345;28;20030;-50
2021/05/06 09:07:31;;;;;;;7.50;3.67;;;;;;;;;;5004650;28;20066;-49
2021/05/06 09:09:57;;;;;;;8.32;4.13;;;;;;;;;;5006634;28;20057;-53
2021/05/06 09:12:35;;;;;;;9.73;4.72;;;;;;;;;;4986428;28;20052;-53
2021/05/06 09:15:07;;;;;;;11.88;4.80;;;;;;;;;;5002370;28;20050;-49
2021/05/06 09:17:33;;;;;;;8.98;4.55;;;;;;;;;;5001766;28;20054;-51
2021/05/06 09:20:19;;;;;;;7.63;3.70;;;;;;;;;;4999455;28;20078;-49
2021/05/06 09:22:50;;;;;;;6.60;4.05;;;;;;;;;;5007724;28;20046;-50
2021/05/06 09:25:30;;;;;;;5.07;3.40;;;;;;;;;;5004177;28;20047;-51
2021/05/06 09:28:03;;;;;;;7.03;3.95;;;;;;;;;;5005323;28;20068;-50
2021/05/06 09:30:31;;;;;;;9.50;3.92;;;;;;;;;;4996633;28;20061;-53
2021/05/06 09:33:00;;;;;;;3.58;3.15;;;;;;;;;;5002288;28;20116;-54
2021/05/06 09:35:27;;;;;;;6.30;3.80;;;;;;;;;;5000070;28;20038;-52
2021/05/06 09:37:53;;;;;;;10.75;4.13;;;;;;;;;;5001438;28;20046;-50
2021/05/06 09:40:20;;;;;;;6.05;3.60;;;;;;;;;;5006063;28;20120;-51
2021/05/06 09:42:49;;;;;;;8.68;3.45;;;;;;;;;;5012512;28;20057;-49
2021/05/06 09:45:33;;;;;;;6.35;3.20;;;;;;;;;;5007555;28;20105;-53
2021/05/06 09:48:10;;;;;;;7.57;3.78;;;;;;;;;;5011097;28;20068;-52
2021/05/06 09:50:37;;;;;;;9.85;3.75;;;;;;;;;;4997729;28;20589;-50
2021/05/06 09:53:12;;;;;;;5.20;3.35;;;;;;;;;;5005010;28;20535;-51
2021/05/06 09:55:39;;;;;;;10.65;3.95;;;;;;;;;;5004768;28;20042;-53
2021/05/06 09:58:11;;;;;;;4.72;3.25;;;;;;;;;;5009201;28;20042;-50
2021/05/06 10:00:37;;;;;;;7.47;3.63;;;;;;;;;;5006232;28;20092;-51
2021/05/06 10:03:14;;;;;;;6.45;3.40;;;;;;;;;;5003435;28;20042;-51
2021/05/06 10:05:42;;;;;;;7.90;3.70;;;;;;;;;;5003420;28;20054;-50
2021/05/06 10:08:08;;;;;;;11.15;3.80;;;;;;;;;;4999179;28;20148;-48
2021/05/06 10:10:36;;;;;;;6.03;3.60;;;;;;;;;;5009535;28;20058;-51
2021/05/06 10:13:05;;;;;;;6.43;4.25;;;;;;;;;;5006637;28;20053;-50
2021/05/06 10:15:31;;;;;;;10.45;4.25;;;;;;;;;;5003980;28;20177;-49
2021/05/06 10:17:57;;;;;;;10.05;4.60;;;;;;;;;;5006880;28;20125;-55
2021/05/06 10:20:26;;;;;;;4.72;3.65;;;;;;;;;;5006989;28;20042;-49
2021/05/06 10:22:55;;;;;;;6.88;4.07;;;;;;;;;;5007996;28;20042;-50
2021/05/06 10:25:22;;;;;;;6.70;3.40;;;;;;;;;;5002278;28;20101;-49
2021/05/06 10:27:49;;;;;;;4.63;3.33;;;;;;;;;;5003921;28;20488;-51
2021/05/06 10:30:16;;;;;;;5.97;3.60;;;;;;;;;;5006992;28;20697;-51
2021/05/06 10:32:44;;;;;;;6.75;4.10;;;;;;;;;;5007662;28;20050;-49
2021/05/06 10:35:10;;;;;;;;;;;;;;;;;;5010242;28;20134;-48
2021/05/06 10:37:37;;;;;;;7.68;3.83;;;;;;;;;;5004624;28;19921;-54
2021/05/06 10:40:23;;;;;;;4.93;2.57;;;;;;;;;;5008414;28;20116;-54
2021/05/06 10:42:51;;;;;;;7.78;3.45;;;;;;;;;;5006610;28;20776;-51
2021/05/06 10:45:21;;;;;;;4.32;3.13;;;;;;;;;;5002854;28;20527;-52
2021/05/06 10:47:51;;;;;;;6.07;3.78;;;;;;;;;;5003000;28;20069;-52
2021/05/06 10:50:26;;;;;;;7.65;3.65;;;;;;;;;;5003416;28;20049;-51
2021/05/06 10:52:53;;;;;;;6.40;3.75;;;;;;;;;;5008287;28;20045;-52
2021/05/06 10:55:39;;;;;;;6.47;3.90;;;;;;;;;;5008374;28;20073;-50
2021/05/06 10:58:27;;;;;;;5.93;3.67;;;;;;;;;;5004323;28;20065;-48
2021/05/06 11:01:05;;;;;;;5.75;4.05;;;;;;;;;;5004722;28;20050;-53
2021/05/06 11:03:32;;;;;;;6.05;3.53;;;;;;;;;;5005052;28;20490;-48
2021/05/06 11:05:59;;;;;;;6.80;3.00;;;;;;;;;;5003337;28;20445;-53
2021/05/06 11:08:32;;;;;;;6.63;3.33;;;;;;;;;;5004682;28;20054;-51
2021/05/06 11:11:03;;;;;;;6.57;3.70;;;;;;;;;;5002484;28;20034;-52
2021/05/06 11:13:49;;;;;;;6.22;3.22;;;;;;;;;;5010031;28;20133;-49
2021/05/06 11:16:16;;;;;;;5.65;3.38;;;;;;;;;;4999842;28;20116;-52
2021/05/06 11:18:44;;;;;;;4.88;3.10;;;;;;;;;;5004839;28;20042;-49
2021/05/06 11:21:29;;;;;;;7.53;3.42;;;;;;;;;;5006481;28;20480;-52
2021/05/06 11:24:17;;;;;;;5.43;3.08;;;;;;;;;;5007343;28;20052;-46
2021/05/06 11:27:12;;;;;;;8.77;3.58;;;;;;;;;;5004917;28;20073;-52
2021/05/06 11:29:41;;;;;;;7.90;3.55;;;;;;;;;;5007290;28;20591;-52
2021/05/06 11:32:20;;;;;;;7.90;3.40;;;;;;;;;;5005716;28;20076;-49
2021/05/06 11:34:51;;;;;;;5.38;3.20;;;;;;;;;;4992541;28;20443;-51
2021/05/06 11:37:28;;;;;;;4.75;2.83;;;;;;;;;;5006548;28;20707;-49
2021/05/06 11:39:56;;;;;;;15.10;3.55;;;;;;;;;;5008482;28;20050;-58
2021/05/06 11:42:23;;;;;;;5.40;3.38;;;;;;;;;;5012589;28;20504;-49
2021/05/06 11:45:08;;;;;;;6.43;3.30;;;;;;;;;;5003359;28;20046;-48
2021/05/06 11:47:36;;;;;;;7.32;3.40;;;;;;;;;;5001879;28;20125;-49
2021/05/06 11:50:16;;;;;;;8.85;3.30;;;;;;;;;;5006811;28;20054;-47
2021/05/06 11:52:43;;;;;;;11.25;3.03;;;;;;;;;;5005157;28;20056;-49
2021/05/06 11:55:09;;;;;;;5.70;3.30;;;;;;;;;;5006203;28;20065;-50
2021/05/06 11:57:35;;;;;;;7.32;3.42;;;;;;;;;;5005605;28;20042;-48
2021/05/06 12:00:02;;;;;;;5.30;2.97;;;;;;;;;;5008510;28;20038;-48
2021/05/06 12:02:37;;;;;;;5.38;3.45;;;;;;;;;;5007545;28;20131;-50
2021/05/06 12:05:04;;;;;;;7.65;3.20;;;;;;;;;;5008790;28;20049;-49
2021/05/06 12:07:32;;;;;;;6.03;3.25;;;;;;;;;;5003093;28;20462;-46
2021/05/06 12:10:06;;;;;;;5.68;3.10;;;;;;;;;;5006612;28;20501;-46
2021/05/06 12:12:33;;;;;;;5.03;3.15;;;;;;;;;;4996497;28;20046;-49
2021/05/06 12:14:59;;;;;;;6.43;3.40;;;;;;;;;;5002299;28;20034;-50
2021/05/06 12:17:25;;;;;;;5.05;3.13;;;;;;;;;;5006114;28;20144;-50
2021/05/06 12:19:52;;;;;;;7.93;3.37;;;;;;;;;;5006546;28;20036;-54
2021/05/06 12:22:19;;;;;;;4.85;2.90;;;;;;;;;;5003892;28;20136;-52
2021/05/06 12:24:48;;;;;;;7.05;3.03;;;;;;;;;;4998840;28;20038;-51
2021/05/06 12:27:20;;;;;;;5.00;2.95;;;;;;;;;;5004538;28;20137;-52
2021/05/06 12:29:47;;;;;;;5.88;3.42;;;;;;;;;;4999212;28;20057;-54
2021/05/06 12:32:20;;;;;;;6.72;2.88;;;;;;;;;;5001303;28;20042;-55
2021/05/06 12:34:47;;;;;;;4.88;2.72;;;;;;;;;;5003458;28;20061;-53
2021/05/06 12:37:15;;;;;;;4.68;3.00;;;;;;;;;;5005082;28;20137;-55
2021/05/06 12:39:43;;;;;;;6.13;2.90;;;;;;;;;;5000349;28;20076;-54
2021/05/06 12:42:10;;;;;;;3.28;2.55;;;;;;;;;;5004887;28;20050;-53
2021/05/06 12:44:37;;;;;;;6.82;2.80;;;;;;;;;;4976174;28;20077;-50
2021/05/06 12:47:13;;;;;;;4.43;2.60;;;;;;;;;;5007488;28;20069;-53
2021/05/06 12:49:42;;;;;;;5.93;2.83;;;;;;;;;;5010714;28;20120;-53
2021/05/06 12:52:27;;;;;;;5.60;2.83;;;;;;;;;;5002481;28;20041;-56
2021/05/06 12:54:55;;;;;;;5.20;2.58;;;;;;;;;;5005195;28;20046;-51
2021/05/06 12:57:22;;;;;;;4.68;2.85;;;;;;;;;;5009639;28;20053;-50
2021/05/06 12:59:49;;;;;;;2.75;2.40;;;;;;;;;;5005752;28;20072;-50
2021/05/06 13:02:17;;;;;;;4.78;2.65;;;;;;;;;;5005424;28;20616;-54
2021/05/06 13:04:49;;;;;;;5.55;2.72;;;;;;;;;;5005835;28;20041;-54
2021/05/06 13:07:17;;;;;;;4.07;2.60;;;;;;;;;;5004943;28;20038;-53
2021/05/06 13:09:46;;;;;;;4.35;3.22;;;;;;;;;;5003279;28;20050;-51
2021/05/06 13:12:13;;;;;;;7.68;2.72;;;;;;;;;;5003117;28;20038;-55
2021/05/06 13:14:44;;;;;;;4.93;2.80;;;;;;;;;;5003397;28;20038;-55
2021/05/06 13:17:21;;;;;;;7.85;3.83;;;;;;;;;;5006800;28;20046;-56
2021/05/06 13:19:48;;;;;;;6.15;2.90;;;;;;;;;;5004396;28;20493;-52
2021/05/06 13:22:14;;;;;;;5.75;3.03;;;;;;;;;;5002531;28;20050;-55
2021/05/06 13:24:41;;;;;;;4.07;2.80;;;;;;;;;;5005295;28;20049;-57
2021/05/06 13:27:18;;;;;;;5.30;2.72;;;;;;;;;;4999431;28;20558;-53
2021/05/06 13:29:46;;;;;;;;;;;;;;;;;;4997682;28;20112;-54
2021/05/06 13:32:12;;;;;;;5.18;2.90;;;;;;;;;;5003034;28;20464;-56
2021/05/06 13:34:51;;;;;;;9.32;3.40;;;;;;;;;;5002313;28;20129;-52
2021/05/06 13:37:18;;;;;;;5.80;2.97;;;;;;;;;;5002796;28;20456;-55
2021/05/06 13:39:44;;;;;;;6.15;3.33;;;;;;;;;;4999157;28;20121;-55
2021/05/06 13:42:10;;;;;;;6.03;3.35;;;;;;;;;;4991913;28;20042;-53
2021/05/06 13:44:37;;;;;;;6.10;3.00;;;;;;;;;;5001877;28;20125;-53
2021/05/06 13:47:06;;;;;;;5.43;2.90;;;;;;;;;;4998243;28;20080;-52
2021/05/06 13:49:33;;;;;;;10.82;3.13;;;;;;;;;;5005282;28;20060;-51
2021/05/06 13:52:01;;;;;;;4.10;2.70;;;;;;;;;;5000530;28;20054;-52
2021/05/06 13:54:28;;;;;;;;;;;;;;;;;;5004258;28;20049;-51
2021/05/06 13:56:54;;;;;;;4.25;3.00;;;;;;;;;;5007463;28;19921;-53
2021/05/06 13:59:21;;;;;;;5.57;3.63;;;;;;;;;;4999965;28;20096;-50
2021/05/06 14:01:55;;;;;;;9.05;3.45;;;;;;;;;;5001418;28;20045;-53
2021/05/06 14:04:22;;;;;;;4.47;3.13;;;;;;;;;;5001240;28;20056;-51
2021/05/06 14:06:49;;;;;;;4.22;2.92;;;;;;;;;;4989414;28;20048;-54
2021/05/06 14:09:18;;;;;;;5.65;3.22;;;;;;;;;;5000077;28;20526;-54
2021/05/06 14:11:44;;;;;;;;;;;;;;;;;;5003359;28;20041;-52
2021/05/06 14:14:11;;;;;;;4.78;2.90;;;;;;;;;;5005833;28;19921;-52
2021/05/06 14:16:39;;;;;;;6.45;3.08;;;;;;;;;;5004127;28;20143;-50
2021/05/06 14:19:11;;;;;;;8.90;3.47;;;;;;;;;;5001636;28;20046;-54
2021/05/06 14:21:39;;;;;;;5.70;2.97;;;;;;;;;;5003451;28;20124;-53
2021/05/06 14:24:06;;;;;;;7.28;3.40;;;;;;;;;;5002808;28;20038;-52
2021/05/06 14:26:33;;;;;;;5.13;3.30;;;;;;;;;;5000351;28;20081;-54
2021/05/06 14:28:59;;;;;;;4.35;2.85;;;;;;;;;;5008224;28;20100;-50
2021/05/06 14:31:26;;;;;;;4.00;3.15;;;;;;;;;;5003757;28;20416;-51
2021/05/06 14:33:52;;;;;;;8.25;3.17;;;;;;;;;;5006129;28;20117;-51
2021/05/06 14:36:18;;;;;;;3.50;2.72;;;;;;;;;;5004158;28;20408;-53
2021/05/06 14:38:45;;;;;;;4.13;2.70;;;;;;;;;;5006488;28;20122;-50
2021/05/06 14:41:11;;;;;;;5.05;2.88;;;;;;;;;;5005874;28;20038;-52
2021/05/06 14:43:37;;;;;;;5.50;2.63;;;;;;;;;;5009784;28;20041;-50
2021/05/06 14:46:04;;;;;;;4.85;2.80;;;;;;;;;;5010337;28;20046;-51
2021/05/06 14:48:31;;;;;;;5.45;2.72;;;;;;;;;;5009676;28;20041;-53
2021/05/06 14:50:57;;;;;;;6.47;2.63;;;;;;;;;;5009728;28;20130;-51
2021/05/06 14:53:29;;;;;;;5.03;2.85;;;;;;;;;;5007208;28;20295;-53
2021/05/06 14:55:56;;;;;;;5.80;3.03;;;;;;;;;;4996681;28;20050;-49
2021/05/06 14:58:23;;;;;;;5.05;2.80;;;;;;;;;;5002530;28;20125;-54
2021/05/06 15:00:49;;;;;;;4.18;2.80;;;;;;;;;;5006469;28;20042;-50
2021/05/06 15:03:15;;;;;;;4.57;2.80;;;;;;;;;;5004762;28;20122;-52
2021/05/06 15:05:42;;;;;;;3.90;2.70;;;;;;;;;;5010787;28;20045;-53
2021/05/06 15:08:09;;;;;;;3.92;2.83;;;;;;;;;;5005404;28;20648;-50
2021/05/06 15:10:35;;;;;;;5.80;2.90;;;;;;;;;;5004706;28;20050;-51
2021/05/06 15:13:01;;;;;;;5.72;2.65;;;;;;;;;;5003737;28;20045;-54
2021/05/06 15:15:31;;;;;;;4.95;2.50;;;;;;;;;;5006882;28;20051;-49
2021/05/06 15:17:59;;;;;;;5.97;2.72;;;;;;;;;;5003925;28;20069;-52
2021/05/06 15:20:25;;;;;;;5.88;3.20;;;;;;;;;;5006129;28;20038;-51
2021/05/06 15:22:53;;;;;;;5.13;2.45;;;;;;;;;;5002628;28;20045;-51
2021/05/06 15:25:23;;;;;;;4.47;2.70;;;;;;;;;;4998568;28;20066;-50
2021/05/06 15:27:50;;;;;;;3.58;2.50;;;;;;;;;;5005423;28;20060;-52
2021/05/06 15:30:18;;;;;;;3.70;2.70;;;;;;;;;;5002319;28;20060;-52
2021/05/06 15:32:44;;;;;;;6.05;2.67;;;;;;;;;;4999254;28;20045;-51
2021/05/06 15:35:11;;;;;;;4.22;2.53;;;;;;;;;;4998195;28;20073;-53
2021/05/06 15:37:37;;;;;;;4.82;2.80;;;;;;;;;;5001274;28;20441;-51
2021/05/06 15:40:04;;;;;;;4.72;2.85;;;;;;;;;;5003944;28;20126;-53
2021/05/06 15:42:31;;;;;;;5.60;2.72;;;;;;;;;;5004731;28;20072;-52
2021/05/06 15:44:58;;;;;;;3.50;2.78;;;;;;;;;;5003782;28;20046;-55
2021/05/06 15:47:24;;;;;;;7.38;3.10;;;;;;;;;;5004570;28;20040;-51
2021/05/06 15:49:52;;;;;;;4.28;2.78;;;;;;;;;;5008376;28;20038;-55
2021/05/06 15:52:19;;;;;;;5.55;3.03;;;;;;;;;;5006377;28;20141;-54
2021/05/06 15:54:45;;;;;;;3.63;2.63;;;;;;;;;;4999571;28;20125;-55
2021/05/06 15:57:12;;;;;;;4.18;2.88;;;;;;;;;;5010201;28;20037;-54
2021/05/06 15:59:38;;;;;;;4.15;2.60;;;;;;;;;;5010459;28;20454;-51
2021/05/06 16:02:26;;;;;;;6.90;2.75;;;;;;;;;;5003636;28;20414;-50
2021/05/06 16:04:53;;;;;;;4.63;2.88;;;;;;;;;;5004411;28;20510;-55
2021/05/06 16:07:19;;;;;;;4.45;2.60;;;;;;;;;;5005527;28;20109;-53
2021/05/06 16:09:47;;;;;;;4.47;2.60;;;;;;;;;;5001926;28;20469;-55
2021/05/06 16:12:13;;;;;;;4.45;2.28;;;;;;;;;;5004309;28;20049;-54
2021/05/06 16:14:39;;;;;;;4.70;2.80;;;;;;;;;;5002228;28;20057;-55
2021/05/06 16:17:05;;;;;;;4.07;2.40;;;;;;;;;;5004061;28;20053;-52
2021/05/06 16:19:33;;;;;;;4.20;2.13;;;;;;;;;;5001604;28;20038;-54
2021/05/06 16:21:59;;;;;;;2.25;2.03;;;;;;;;;;5000489;28;20080;-50
2021/05/06 16:24:25;;;;;;;3.50;2.75;;;;;;;;;;5008293;28;20038;-54
2021/05/06 16:26:53;;;;;;;3.05;2.15;;;;;;;;;;5009100;28;20045;-53
2021/05/06 16:29:19;;;;;;;2.67;2.20;;;;;;;;;;5009858;28;20065;-53
2021/05/06 16:31:45;;;;;;;3.25;2.42;;;;;;;;;;5009462;28;20408;-53
2021/05/06 16:34:18;;;;;;;2.38;2.13;;;;;;;;;;4996461;28;20043;-55
2021/05/06 16:36:59;;;;;;;4.47;2.28;;;;;;;;;;5005130;28;20050;-51
2021/05/06 16:44:44;;;;;;;4.22;2.50;;;;;;;;;;5002630;28;20494;-53
2021/05/06 16:47:09;;;;;;;;;;;;;;;;;;5005731;28;20133;-54
2021/05/06 16:49:36;;;;;;;5.65;2.92;;;;;;;;;;5007386;28;20024;-52
2021/05/06 16:52:03;;;;;;;2.80;2.42;;;;;;;;;;5003443;28;20052;-51
2021/05/06 16:54:29;;;;;;;3.75;2.40;;;;;;;;;;4998162;28;20050;-51
2021/05/06 16:56:56;;;;;;;3.60;2.40;;;;;;;;;;5004040;28;20046;-53
2021/05/06 16:59:23;;;;;;;3.30;2.50;;;;;;;;;;5003527;28;20050;-52
2021/05/06 17:01:50;;;;;;;3.78;2.55;;;;;;;;;;5000918;28;20129;-51
2021/05/06 17:04:16;;;;;;;2.60;2.20;;;;;;;;;;5001610;28;20643;-51
2021/05/06 17:06:45;;;;;;;4.95;2.50;;;;;;;;;;5002960;28;20053;-48
2021/05/06 17:09:11;;;;;;;4.97;2.30;;;;;;;;;;4998363;28;20421;-54
2021/05/06 17:11:39;;;;;;;4.47;2.30;;;;;;;;;;4999386;28;20537;-50
2021/05/06 17:14:07;;;;;;;3.03;2.30;;;;;;;;;;4999817;28;20057;-55
2021/05/06 17:16:34;;;;;;;3.40;2.33;;;;;;;;;;5003107;28;20045;-52
2021/05/06 17:19:00;;;;;;;3.90;2.25;;;;;;;;;;5001951;28;20038;-55
2021/05/06 17:21:28;;;;;;;4.07;2.50;;;;;;;;;;4996531;28;20038;-53
2021/05/06 17:23:54;;;;;;;3.60;2.17;;;;;;;;;;4987783;28;20050;-52
2021/05/06 17:26:21;;;;;;;4.72;2.70;;;;;;;;;;4990687;28;20133;-55
2021/05/06 17:28:47;;;;;;;6.30;2.85;;;;;;;;;;5001540;28;20691;-54
2021/05/06 17:31:13;;;;;;;3.95;2.63;;;;;;;;;;5000489;28;20486;-52
2021/05/06 17:33:40;;;;;;;3.42;2.50;;;;;;;;;;5001887;28;20045;-50
2021/05/06 17:36:07;;;;;;;3.00;2.33;;;;;;;;;;5001908;28;20069;-53
2021/05/06 17:38:39;;;;;;;4.13;2.20;;;;;;;;;;5009608;28;20045;-55
2021/05/06 17:41:05;;;;;;;2.60;2.28;;;;;;;;;;5005552;28;20769;-55
2021/05/06 17:43:33;;;;;;;3.50;2.17;;;;;;;;;;5002608;28;20042;-55
2021/05/06 17:45:59;;;;;;;4.03;2.35;;;;;;;;;;4996760;28;21784;-55
2021/05/06 17:48:26;;;;;;;2.88;2.40;;;;;;;;;;5001802;28;20037;-54
2021/05/06 17:50:53;;;;;;;3.97;2.30;;;;;;;;;;5004845;28;20056;-55
2021/05/06 17:53:19;;;;;;;4.97;2.40;;;;;;;;;;4998215;28;20052;-54
2021/05/06 17:55:45;;;;;;;3.22;2.55;;;;;;;;;;4997635;28;20057;-52
2021/05/06 17:58:11;;;;;;;3.50;2.40;;;;;;;;;;4995280;28;20571;-53
2021/05/06 18:00:38;;;;;;;3.17;2.20;;;;;;;;;;4997564;28;20053;-52
2021/05/06 18:03:04;;;;;;;3.55;2.72;;;;;;;;;;5008313;28;20057;-52
2021/05/06 18:05:32;;;;;;;4.82;2.60;;;;;;;;;;5003294;28;20117;-52
2021/05/06 18:07:58;;;;;;;2.95;2.53;;;;;;;;;;5003509;28;20057;-48
2021/05/06 18:10:35;;;;;;;3.67;2.88;;;;;;;;;;5005514;28;20069;-52
2021/05/06 18:13:06;;;;;;;3.55;2.47;;;;;;;;;;5005177;28;20054;-51
2021/05/06 18:15:33;;;;;;;4.72;2.67;;;;;;;;;;5002609;28;20046;-55
2021/05/06 18:18:01;;;;;;;6.55;2.75;;;;;;;;;;5001174;28;20050;-53
2021/05/06 18:20:29;;;;;;;3.80;2.53;;;;;;;;;;4999934;28;20373;-53